createdAt,value
2018-09-27T00:01:54.874Z,15.18
2018-09-27T00:04:24.121Z,15.20
2018-09-27T00:06:52.971Z,15.15
2018-09-27T00:09:21.779Z,14.90
2018-09-27T00:11:50.877Z,14.96
2018-09-27T00:14:19.701Z,15.08
2018-09-27T00:16:48.543Z,14.89
2018-09-27T00:19:17.691Z,14.94
2018-09-27T00:21:46.509Z,14.96
2018-09-27T00:24:15.332Z,14.98
2018-09-27T00:26:44.434Z,15.05
2018-09-27T00:29:13.286Z,15.07
2018-09-27T00:31:49.089Z,14.96
2018-09-27T00:34:18.248Z,14.93
2018-09-27T00:36:47.065Z,14.98
2018-09-27T00:39:17.611Z,14.90
2018-09-27T00:41:52.196Z,14.96
2018-09-27T00:44:21.070Z,14.86
2018-09-27T00:46:51.009Z,14.89
2018-09-27T00:49:20.141Z,14.91
2018-09-27T00:51:48.960Z,14.89
2018-09-27T00:54:17.818Z,14.90
2018-09-27T00:56:46.956Z,14.82
2018-09-27T00:59:15.787Z,14.82
2018-09-27T01:01:45.618Z,14.85
2018-09-27T01:04:14.752Z,14.84
2018-09-27T01:06:48.827Z,14.79
2018-09-27T01:09:17.763Z,14.73
2018-09-27T01:11:46.901Z,14.72
2018-09-27T01:14:15.759Z,14.54
2018-09-27T01:16:44.644Z,14.40
2018-09-27T01:19:16.766Z,14.40
2018-09-27T01:21:45.600Z,14.50
2018-09-27T01:24:14.548Z,14.12
2018-09-27T01:26:44.137Z,13.90
2018-09-27T01:29:12.984Z,13.55
2018-09-27T01:31:41.845Z,13.63
2018-09-27T01:34:10.750Z,13.90
2018-09-27T01:36:39.611Z,13.93
2018-09-27T01:39:09.192Z,13.74
2018-09-27T01:41:38.942Z,13.68
2018-09-27T01:44:07.863Z,13.40
2018-09-27T01:46:51.244Z,13.45
2018-09-27T01:49:20.129Z,13.78
2018-09-27T01:51:49.272Z,13.85
2018-09-27T01:54:22.984Z,13.90
2018-09-27T01:56:51.859Z,14.02
2018-09-27T01:59:22.625Z,14.07
2018-09-27T02:02:02.835Z,14.04
2018-09-27T02:04:31.950Z,13.80
2018-09-27T02:07:00.820Z,13.53
2018-09-27T02:09:29.716Z,13.74
2018-09-27T02:11:58.852Z,13.71
2018-09-27T02:14:27.723Z,13.54
2018-09-27T02:16:59.882Z,13.35
2018-09-27T02:19:28.992Z,13.56
2018-09-27T02:21:57.809Z,13.44
2018-09-27T02:24:26.660Z,13.13
2018-09-27T02:26:55.800Z,13.30
2018-09-27T02:29:24.610Z,13.45
2018-09-27T02:31:53.445Z,13.56
2018-09-27T02:34:24.616Z,13.61
2018-09-27T02:36:53.457Z,13.61
2018-09-27T02:39:22.292Z,13.59
2018-09-27T02:41:51.432Z,13.44
2018-09-27T02:44:20.275Z,13.47
2018-09-27T02:46:52.824Z,13.13
2018-09-27T02:49:21.961Z,13.10
2018-09-27T02:51:50.982Z,13.16
2018-09-27T02:54:19.795Z,13.19
2018-09-27T02:56:49.026Z,13.22
2018-09-27T02:59:19.792Z,13.29
2018-09-27T03:01:48.615Z,13.27
2018-09-27T03:04:24.473Z,13.28
2018-09-27T03:06:53.305Z,12.57
2018-09-27T03:09:23.319Z,12.34
2018-09-27T03:11:52.552Z,12.24
2018-09-27T03:14:26.292Z,12.23
2018-09-27T03:16:55.124Z,12.08
2018-09-27T03:19:27.688Z,12.09
2018-09-27T03:21:56.509Z,12.41
2018-09-27T03:24:25.356Z,12.46
2018-09-27T03:30:30.390Z,12.59
2018-09-27T03:32:59.537Z,12.80
2018-09-27T03:35:32.165Z,12.91
2018-09-27T03:40:28.982Z,12.92
2018-09-27T03:42:57.806Z,12.95
2018-09-27T03:45:26.639Z,13.02
2018-09-27T03:48:58.063Z,13.04
2018-09-27T03:51:26.883Z,13.11
2018-09-27T03:53:56.044Z,13.11
2018-09-27T03:56:24.867Z,13.11
2018-09-27T03:58:53.740Z,13.07
2018-09-27T04:01:22.925Z,13.05
2018-09-27T04:03:51.807Z,13.08
2018-09-27T04:06:22.229Z,13.12
2018-09-27T04:08:51.315Z,13.10
2018-09-27T04:11:20.209Z,13.08
2018-09-27T04:13:52.277Z,13.09
2018-09-27T04:16:21.139Z,13.09
2018-09-27T04:18:50.049Z,12.98
2018-09-27T04:21:28.521Z,12.97
2018-09-27T04:23:57.495Z,13.02
2018-09-27T04:26:26.325Z,13.00
2018-09-27T04:28:55.178Z,12.84
2018-09-27T04:31:24.024Z,12.82
2018-09-27T04:33:53.239Z,12.84
2018-09-27T04:36:22.117Z,12.84
2018-09-27T04:38:50.957Z,12.81
2018-09-27T04:41:25.223Z,12.87
2018-09-27T04:43:54.107Z,12.90
2018-09-27T04:46:22.970Z,12.76
2018-09-27T04:48:52.102Z,12.70
2018-09-27T04:51:20.974Z,12.67
2018-09-27T04:53:50.619Z,12.36
2018-09-27T04:56:19.817Z,12.28
2018-09-27T04:58:48.671Z,12.31
2018-09-27T05:01:17.497Z,12.45
2018-09-27T05:03:46.700Z,12.50
2018-09-27T05:06:15.608Z,12.62
2018-09-27T05:08:44.503Z,12.57
2018-09-27T05:11:14.016Z,12.66
2018-09-27T05:13:42.947Z,12.65
2018-09-27T05:16:12.360Z,12.59
2018-09-27T05:18:41.699Z,12.57
2018-09-27T05:21:10.898Z,12.51
2018-09-27T05:23:40.702Z,12.59
2018-09-27T05:26:10.184Z,12.58
2018-09-27T05:28:39.591Z,12.33
2018-09-27T05:31:10.422Z,12.33
2018-09-27T05:33:40.721Z,12.46
2018-09-27T05:36:10.837Z,12.26
2018-09-27T05:38:43.862Z,12.21
2018-09-27T05:41:16.366Z,12.50
2018-09-27T05:43:46.652Z,12.50
2018-09-27T05:46:17.189Z,12.42
2018-09-27T05:48:46.825Z,12.56
2018-09-27T05:51:15.943Z,12.21
2018-09-27T05:53:50.555Z,12.29
2018-09-27T05:56:19.657Z,12.22
2018-09-27T05:58:48.506Z,12.17
2018-09-27T06:01:17.904Z,11.71
2018-09-27T06:03:46.762Z,11.69
2018-09-27T06:06:18.755Z,11.73
2018-09-27T06:08:47.974Z,11.57
2018-09-27T06:11:27.841Z,11.44
2018-09-27T06:14:05.229Z,11.62
2018-09-27T06:16:34.432Z,11.96
2018-09-27T06:19:05.337Z,12.23
2018-09-27T06:21:34.227Z,12.36
2018-09-27T06:24:05.774Z,12.41
2018-09-27T06:26:35.312Z,12.53
2018-09-27T06:29:04.318Z,12.67
2018-09-27T06:31:33.169Z,12.77
2018-09-27T06:34:03.053Z,12.76
2018-09-27T06:36:31.923Z,12.79
2018-09-27T06:39:00.941Z,12.87
2018-09-27T06:41:30.198Z,12.99
2018-09-27T06:44:00.912Z,13.16
2018-09-27T06:46:30.215Z,13.29
2018-09-27T06:49:17.707Z,13.39
2018-09-27T06:51:47.212Z,13.44
2018-09-27T06:54:33.851Z,13.48
2018-09-27T06:57:13.736Z,13.52
2018-09-27T06:59:57.229Z,13.67
2018-09-27T07:02:26.491Z,13.74
2018-09-27T07:04:55.737Z,13.83
2018-09-27T07:07:24.741Z,13.82
2018-09-27T07:09:53.577Z,13.70
2018-09-27T07:12:23.549Z,13.67
2018-09-27T07:14:52.253Z,13.83
2018-09-27T07:17:21.151Z,13.95
2018-09-27T07:19:58.989Z,14.01
2018-09-27T07:22:27.861Z,13.85
2018-09-27T07:24:56.738Z,13.77
2018-09-27T07:27:28.682Z,13.95
2018-09-27T07:29:57.824Z,14.09
2018-09-27T07:32:27.354Z,14.24
2018-09-27T07:34:56.248Z,14.02
2018-09-27T07:37:25.408Z,13.53
2018-09-27T07:39:54.292Z,13.78
2018-09-27T07:42:34.191Z,13.92
2018-09-27T07:45:03.661Z,13.61
2018-09-27T07:47:34.262Z,14.01
2018-09-27T07:50:04.746Z,14.29
2018-09-27T07:52:52.790Z,14.52
2018-09-27T07:55:24.921Z,14.70
2018-09-27T07:57:54.142Z,14.48
2018-09-27T08:00:23.015Z,14.88
2018-09-27T08:02:52.005Z,15.06
2018-09-27T08:05:21.165Z,15.35
2018-09-27T08:07:50.765Z,15.90
2018-09-27T08:10:20.028Z,16.10
2018-09-27T08:12:49.213Z,16.27
2018-09-27T08:15:48.566Z,16.54
2018-09-27T08:18:17.463Z,16.93
2018-09-27T08:20:46.677Z,16.61
2018-09-27T08:23:15.597Z,16.95
2018-09-27T08:25:47.390Z,17.31
2018-09-27T08:28:16.623Z,17.62
2018-09-27T08:30:45.797Z,17.86
2018-09-27T08:33:14.604Z,18.07
2018-09-27T08:35:47.063Z,17.98
2018-09-27T08:38:16.540Z,17.95
2018-09-27T08:40:49.620Z,18.38
2018-09-27T08:43:18.612Z,18.17
2018-09-27T08:45:47.581Z,18.12
2018-09-27T08:48:16.413Z,18.27
2018-09-27T08:50:45.361Z,17.63
2018-09-27T08:53:14.549Z,18.00
2018-09-27T08:55:43.764Z,18.67
2018-09-27T08:58:12.524Z,19.12
2018-09-27T09:00:42.701Z,19.02
2018-09-27T09:03:11.547Z,19.06
2018-09-27T09:05:40.490Z,19.13
2018-09-27T09:08:09.653Z,19.51
2018-09-27T09:10:42.561Z,19.96
2018-09-27T09:13:11.403Z,20.22
2018-09-27T09:15:40.641Z,19.77
2018-09-27T09:18:09.499Z,19.34
2018-09-27T09:20:40.912Z,20.06
2018-09-27T09:23:10.080Z,20.62
2018-09-27T09:25:39.103Z,20.46
2018-09-27T09:28:08.014Z,20.57
2018-09-27T09:30:40.829Z,20.56
2018-09-27T09:33:09.737Z,19.80
2018-09-27T09:35:39.746Z,20.26
2018-09-27T09:38:08.826Z,21.04
2018-09-27T09:40:37.804Z,21.69
2018-09-27T09:43:06.716Z,21.81
2018-09-27T09:45:36.033Z,22.16
2018-09-27T09:48:05.969Z,22.42
2018-09-27T09:50:34.944Z,22.78
2018-09-27T09:53:08.329Z,23.25
2018-09-27T09:55:37.830Z,23.40
2018-09-27T09:58:12.240Z,23.01
2018-09-27T10:00:41.148Z,22.66
2018-09-27T10:03:10.230Z,23.46
2018-09-27T10:05:39.505Z,23.78
2018-09-27T10:08:08.401Z,23.81
2018-09-27T10:10:37.348Z,23.62
2018-09-27T10:13:06.570Z,23.17
2018-09-27T10:15:35.486Z,23.57
2018-09-27T10:18:05.819Z,23.79
2018-09-27T10:20:34.984Z,23.34
2018-09-27T10:23:05.089Z,23.59
2018-09-27T10:25:33.989Z,24.38
2018-09-27T10:28:04.408Z,24.65
2018-09-27T10:30:39.047Z,25.08
2018-09-27T10:33:07.945Z,24.80
2018-09-27T10:35:42.481Z,24.64
2018-09-27T10:38:11.383Z,25.20
2018-09-27T10:40:41.088Z,25.34
2018-09-27T10:43:09.906Z,25.58
2018-09-27T10:45:39.785Z,25.94
2018-09-27T10:48:08.998Z,26.00
2018-09-27T10:50:37.979Z,26.36
2018-09-27T10:53:07.194Z,26.74
2018-09-27T10:55:38.588Z,26.96
2018-09-27T10:58:08.151Z,27.25
2018-09-27T11:00:37.528Z,27.31
2018-09-27T11:03:06.879Z,27.44
2018-09-27T11:05:56.388Z,27.46
2018-09-27T11:08:26.443Z,27.53
2018-09-27T11:10:55.816Z,28.12
2018-09-27T11:13:24.695Z,28.57
2018-09-27T11:15:58.480Z,29.09
2018-09-27T11:18:32.877Z,29.68
2018-09-27T11:21:02.251Z,29.53
2018-09-27T11:23:31.674Z,29.55
2018-09-27T11:26:00.628Z,27.93
2018-09-27T11:30:41.744Z,27.46
2018-09-27T11:35:50.613Z,27.21
2018-09-27T11:38:19.480Z,28.58
2018-09-27T11:40:48.417Z,29.58
2018-09-27T11:43:17.644Z,30.29
2018-09-27T11:45:46.505Z,30.34
2018-09-27T11:48:15.416Z,30.77
2018-09-27T11:50:45.585Z,30.95
2018-09-27T11:53:20.226Z,28.03
2018-09-27T11:55:49.182Z,27.13
2018-09-27T11:58:18.393Z,28.12
2018-09-27T12:01:04.807Z,27.74
2018-09-27T12:03:51.269Z,29.12
2018-09-27T12:06:20.245Z,28.84
2018-09-27T12:08:55.372Z,29.07
2018-09-27T12:11:24.248Z,29.68
2018-09-27T12:13:54.360Z,30.23
2018-09-27T12:16:23.574Z,30.96
2018-09-27T12:18:55.925Z,31.69
2018-09-27T12:21:24.845Z,30.85
2018-09-27T12:23:54.033Z,31.90
2018-09-27T12:26:23.812Z,30.38
2018-09-27T12:28:58.152Z,31.29
2018-09-27T12:31:27.025Z,31.88
2018-09-27T12:33:55.883Z,32.74
2018-09-27T12:39:01.365Z,30.78
2018-09-27T12:41:31.479Z,30.26
2018-09-27T12:44:00.366Z,31.97
2018-09-27T12:46:29.354Z,31.72
2018-09-27T12:48:58.327Z,31.61
2018-09-27T12:51:33.368Z,32.19
2018-09-27T12:56:40.716Z,31.72
2018-09-27T12:59:09.721Z,31.37
2018-09-27T13:01:39.760Z,29.51
2018-09-27T13:04:08.805Z,29.35
2018-09-27T13:06:37.629Z,30.57
2018-09-27T13:09:09.166Z,31.35
2018-09-27T13:11:40.644Z,31.81
2018-09-27T13:14:06.968Z,30.42
2018-09-27T13:16:42.449Z,29.74
2018-09-27T13:19:11.395Z,31.11
2018-09-27T13:21:44.109Z,29.72
2018-09-27T13:24:13.036Z,30.15
2018-09-27T13:26:47.270Z,31.62
2018-09-27T13:29:16.543Z,30.65
2018-09-27T13:31:49.364Z,31.48
2018-09-27T13:34:18.266Z,31.43
2018-09-27T13:36:47.454Z,32.18
2018-09-27T13:39:16.324Z,32.19
2018-09-27T13:41:45.332Z,32.38
2018-09-27T13:44:14.527Z,32.90
2018-09-27T13:46:43.425Z,32.54
2018-09-27T13:49:12.426Z,30.33
2018-09-27T13:51:41.509Z,30.90
2018-09-27T13:54:10.355Z,31.74
2018-09-27T13:56:39.417Z,32.03
2018-09-27T13:59:08.763Z,32.30
2018-09-27T14:01:38.156Z,31.18
2018-09-27T14:04:07.206Z,30.19
2018-09-27T14:06:36.084Z,30.08
2018-09-27T14:09:06.786Z,30.94
2018-09-27T14:11:38.035Z,31.40
2018-09-27T14:14:07.053Z,30.19
2018-09-27T14:16:35.992Z,31.07
2018-09-27T14:19:04.909Z,31.85
2018-09-27T14:21:33.899Z,31.96
2018-09-27T14:24:06.456Z,32.12
2018-09-27T14:26:35.399Z,31.90
2018-09-27T14:29:04.341Z,31.87
2018-09-27T14:31:33.212Z,31.04
2018-09-27T14:34:03.945Z,28.90
2018-09-27T14:36:33.190Z,28.70
2018-09-27T14:39:02.385Z,29.82
2018-09-27T14:41:31.371Z,29.23
2018-09-27T14:44:04.454Z,29.46
2018-09-27T14:46:33.345Z,30.33
2018-09-27T14:49:08.904Z,30.91
2018-09-27T14:51:38.297Z,30.33
2018-09-27T14:54:07.709Z,29.54
2018-09-27T14:56:36.650Z,30.29
2018-09-27T14:59:06.173Z,30.58
2018-09-27T15:01:35.027Z,30.99
2018-09-27T15:04:04.919Z,30.58
2018-09-27T15:06:34.137Z,29.81
2018-09-27T15:09:04.951Z,29.21
2018-09-27T15:11:33.834Z,29.64
2018-09-27T15:14:05.031Z,29.93
2018-09-27T15:16:33.959Z,30.51
2018-09-27T15:19:02.890Z,30.64
2018-09-27T15:21:31.785Z,30.94
2018-09-27T15:24:01.344Z,30.45
2018-09-27T15:26:30.453Z,30.49
2018-09-27T15:28:59.362Z,30.87
2018-09-27T15:31:28.451Z,30.75
2018-09-27T15:33:57.612Z,30.74
2018-09-27T15:36:26.576Z,30.73
2018-09-27T15:38:55.397Z,30.86
2018-09-27T15:41:24.565Z,30.99
2018-09-27T15:43:53.566Z,30.81
2018-09-27T15:46:22.476Z,30.68
2018-09-27T15:48:51.635Z,30.84
2018-09-27T15:51:20.756Z,30.62
2018-09-27T15:53:49.663Z,29.92
2018-09-27T15:56:18.858Z,29.84
2018-09-27T15:58:47.745Z,30.02
2018-09-27T16:01:16.757Z,29.76
2018-09-27T16:03:48.068Z,29.38
2018-09-27T16:06:16.884Z,29.45
2018-09-27T16:08:45.666Z,29.40
2018-09-27T16:11:22.365Z,29.59
2018-09-27T16:13:51.209Z,29.64
2018-09-27T16:16:20.072Z,29.66
2018-09-27T16:18:48.925Z,28.89
2018-09-27T16:21:17.788Z,28.88
2018-09-27T16:23:46.976Z,28.59
2018-09-27T16:26:15.842Z,28.37
2018-09-27T16:28:44.932Z,28.00
2018-09-27T16:31:13.874Z,27.69
2018-09-27T16:33:42.723Z,27.38
2018-09-27T16:36:13.484Z,27.20
2018-09-27T16:38:42.526Z,26.87
2018-09-27T16:41:11.685Z,26.66
2018-09-27T16:43:43.734Z,26.61
2018-09-27T16:46:12.726Z,26.47
2018-09-27T16:48:42.168Z,26.32
2018-09-27T16:51:11.188Z,26.24
2018-09-27T16:53:40.272Z,26.04
2018-09-27T16:56:10.671Z,25.96
2018-09-27T16:58:39.594Z,25.86
2018-09-27T17:01:10.342Z,25.72
2018-09-27T17:03:39.877Z,25.63
2018-09-27T17:06:10.076Z,25.49
2018-09-27T17:08:40.003Z,25.40
2018-09-27T17:11:09.720Z,25.30
2018-09-27T17:13:39.290Z,25.19
2018-09-27T17:16:09.086Z,25.11
2018-09-27T17:18:38.652Z,24.94
2018-09-27T17:21:07.967Z,24.92
2018-09-27T17:23:43.204Z,24.85
2018-09-27T17:26:12.663Z,24.78
2018-09-27T17:28:46.793Z,24.45
2018-09-27T17:31:16.995Z,24.37
2018-09-27T17:33:46.891Z,24.43
2018-09-27T17:36:16.769Z,24.26
2018-09-27T17:38:47.282Z,24.28
2018-09-27T17:41:16.964Z,24.24
2018-09-27T17:43:46.700Z,24.17
2018-09-27T17:46:16.304Z,24.11
2018-09-27T17:48:46.158Z,23.49
2018-09-27T17:51:15.956Z,23.30
2018-09-27T17:56:17.479Z,23.12
2018-09-27T17:58:48.243Z,22.96
2018-09-27T18:01:18.030Z,23.11
2018-09-27T18:03:47.993Z,23.10
2018-09-27T18:06:17.604Z,23.21
2018-09-27T18:08:47.285Z,23.28
2018-09-27T18:11:17.547Z,23.33
2018-09-27T18:13:48.165Z,23.34
2018-09-27T18:16:17.859Z,23.34
2018-09-27T18:18:47.964Z,23.33
2018-09-27T18:21:17.617Z,23.30
2018-09-27T18:23:50.046Z,23.22
2018-09-27T18:26:22.076Z,23.20
2018-09-27T18:28:52.740Z,23.18
2018-09-27T18:31:22.632Z,23.15
2018-09-27T18:33:52.709Z,23.09
2018-09-27T18:36:22.373Z,23.06
2018-09-27T18:38:52.021Z,22.89
2018-09-27T18:41:22.482Z,22.93
2018-09-27T18:43:52.255Z,22.93
2018-09-27T18:46:22.708Z,22.88
2018-09-27T18:48:55.598Z,22.84
2018-09-27T18:51:25.276Z,22.77
2018-09-27T18:53:54.904Z,22.74
2018-09-27T19:02:07.556Z,22.61
2018-09-27T19:04:37.244Z,22.57
2018-09-27T19:07:06.923Z,22.54
2018-09-27T19:09:41.825Z,22.52
2018-09-27T19:12:11.789Z,22.39
2018-09-27T19:14:42.314Z,22.34
2018-09-27T19:17:12.371Z,22.31
2018-09-27T19:19:41.854Z,22.29
2018-09-27T19:22:15.584Z,22.20
2018-09-27T19:24:45.187Z,22.16
2018-09-27T19:27:14.813Z,22.11
2018-09-27T19:29:45.823Z,22.10
2018-09-27T19:32:16.347Z,22.07
2018-09-27T19:34:46.180Z,21.89
2018-09-27T19:37:16.198Z,21.93
2018-09-27T19:39:52.672Z,21.94
2018-09-27T19:42:22.560Z,21.91
2018-09-27T19:44:52.348Z,21.89
2018-09-27T19:47:22.000Z,21.87
2018-09-27T19:49:52.113Z,21.72
2018-09-27T19:52:23.051Z,21.74
2018-09-27T19:54:52.797Z,21.74
2018-09-27T19:57:22.402Z,21.73
2018-09-27T19:59:52.453Z,21.69
2018-09-27T20:02:22.794Z,21.67
2018-09-27T20:04:53.847Z,21.61
2018-09-27T20:07:24.565Z,21.55
2018-09-27T20:09:54.233Z,21.48
2018-09-27T20:12:24.811Z,21.44
2018-09-27T20:17:29.881Z,21.35
2018-09-27T20:19:59.605Z,21.23
2018-09-27T20:22:29.972Z,21.26
2018-09-27T20:24:59.653Z,21.21
2018-09-27T20:27:29.308Z,21.13
2018-09-27T20:29:59.341Z,21.13
2018-09-27T20:32:36.888Z,21.01
2018-09-27T20:35:09.203Z,20.87
2018-09-27T20:37:42.515Z,20.71
2018-09-27T20:40:12.088Z,20.86
2018-09-27T20:42:42.893Z,20.84
2018-09-27T20:45:12.575Z,20.84
2018-09-27T20:47:45.176Z,20.80
2018-09-27T20:50:15.101Z,20.80
2018-09-27T20:52:44.803Z,20.80
2018-09-27T20:55:16.360Z,20.75
2018-09-27T20:57:45.940Z,20.70
2018-09-27T21:00:15.791Z,20.73
2018-09-27T21:02:55.327Z,20.50
2018-09-27T21:05:29.551Z,20.34
2018-09-27T21:07:59.184Z,20.32
2018-09-27T21:10:31.820Z,20.26
2018-09-27T21:13:05.757Z,20.31
2018-09-27T21:15:35.299Z,20.33
2018-09-27T21:18:06.513Z,20.38
2018-09-27T21:20:35.335Z,20.39
2018-09-27T21:23:04.230Z,20.39
2018-09-27T21:25:33.178Z,20.18
2018-09-27T21:28:04.464Z,19.86
2018-09-27T21:30:38.835Z,19.97
2018-09-27T21:33:07.813Z,20.09
2018-09-27T21:35:36.620Z,20.15
2018-09-27T21:38:06.345Z,20.17
2018-09-27T21:40:35.187Z,20.01
2018-09-27T21:43:04.063Z,20.06
2018-09-27T21:45:33.213Z,20.03
2018-09-27T21:48:02.698Z,20.02
2018-09-27T21:50:31.513Z,20.05
2018-09-27T21:53:00.671Z,19.96
2018-09-27T21:55:29.563Z,19.64
2018-09-27T21:57:58.342Z,19.42
2018-09-27T22:00:27.655Z,19.36
2018-09-27T22:02:57.076Z,19.33
2018-09-27T22:05:25.904Z,19.31
2018-09-27T22:07:54.990Z,19.30
2018-09-27T22:10:23.788Z,19.09
2018-09-27T22:12:52.796Z,19.21
2018-09-27T22:17:55.415Z,18.92
2018-09-27T22:20:24.277Z,18.72
2018-09-27T22:22:53.545Z,18.95
2018-09-27T22:25:23.159Z,19.03
2018-09-27T22:27:52.254Z,19.11
2018-09-27T22:30:22.148Z,19.07
2018-09-27T22:32:51.132Z,19.18
2018-09-27T22:35:20.009Z,19.05
2018-09-27T22:37:49.120Z,19.12
2018-09-27T22:40:17.922Z,19.18
2018-09-27T22:42:46.788Z,19.21
2018-09-27T22:45:15.900Z,19.22
2018-09-27T22:47:48.297Z,19.19
2018-09-27T22:50:17.049Z,19.17
2018-09-27T22:52:50.111Z,19.18
2018-09-27T22:55:18.969Z,19.17
2018-09-27T22:57:47.782Z,19.07
2018-09-27T23:00:16.915Z,19.05
2018-09-27T23:02:45.883Z,19.04
2018-09-27T23:05:14.717Z,18.92
2018-09-27T23:07:43.810Z,18.85
2018-09-27T23:10:12.606Z,18.73
2018-09-27T23:12:41.441Z,18.76
2018-09-27T23:18:01.132Z,18.71
2018-09-27T23:20:30.436Z,18.75
2018-09-27T23:22:59.277Z,18.65
2018-09-27T23:25:28.068Z,18.58
2018-09-27T23:28:00.769Z,18.58
2018-09-27T23:30:29.640Z,18.56
2018-09-27T23:32:58.795Z,18.51
2018-09-27T23:35:27.576Z,18.29
2018-09-27T23:37:56.334Z,18.21
2018-09-27T23:40:25.136Z,18.18
2018-09-27T23:42:53.985Z,18.28
2018-09-27T23:45:22.973Z,18.32
2018-09-27T23:47:51.856Z,18.38
2018-09-27T23:50:23.615Z,18.41
2018-09-27T23:52:52.789Z,18.35
2018-09-27T23:55:21.611Z,18.10
2018-09-27T23:57:50.461Z,18.14
